sensor_id;sensor_type;location;lat;lon;timestamp;temperature;humidity
38333;DHT22;25748;46.670;14.272;2024-01-07T00:02:11;3.90;69.10
38333;DHT22;25748;46.670;14.272;2024-01-07T00:04:36;3.90;69.20
38333;DHT22;25748;46.670;14.272;2024-01-07T00:07:03;3.90;69.10
38333;DHT22;25748;46.670;14.272;2024-01-07T00:09:29;3.90;69.20
38333;DHT22;25748;46.670;14.272;2024-01-07T00:11:55;3.90;69.30
38333;DHT22;25748;46.670;14.272;2024-01-07T00:14:20;3.90;69.40
38333;DHT22;25748;46.670;14.272;2024-01-07T00:16:46;3.80;69.30
38333;DHT22;25748;46.670;14.272;2024-01-07T00:19:12;3.80;69.30
38333;DHT22;25748;46.670;14.272;2024-01-07T00:21:37;3.80;69.30
38333;DHT22;25748;46.670;14.272;2024-01-07T00:24:03;3.80;69.50
38333;DHT22;25748;46.670;14.272;2024-01-07T00:26:29;3.70;69.60
38333;DHT22;25748;46.670;14.272;2024-01-07T00:28:54;3.70;69.40
38333;DHT22;25748;46.670;14.272;2024-01-07T00:31:20;3.70;69.60
38333;DHT22;25748;46.670;14.272;2024-01-07T00:33:46;3.70;69.60
38333;DHT22;25748;46.670;14.272;2024-01-07T00:36:11;3.70;69.70
38333;DHT22;25748;46.670;14.272;2024-01-07T00:38:37;3.70;69.80
38333;DHT22;25748;46.670;14.272;2024-01-07T00:41:03;3.70;70.00
38333;DHT22;25748;46.670;14.272;2024-01-07T00:43:28;3.60;69.90
38333;DHT22;25748;46.670;14.272;2024-01-07T00:45:54;3.60;70.00
38333;DHT22;25748;46.670;14.272;2024-01-07T00:48:19;3.60;70.10
38333;DHT22;25748;46.670;14.272;2024-01-07T00:50:45;3.70;70.20
38333;DHT22;25748;46.670;14.272;2024-01-07T00:53:11;3.70;70.20
38333;DHT22;25748;46.670;14.272;2024-01-07T00:55:36;3.60;70.20
38333;DHT22;25748;46.670;14.272;2024-01-07T00:58:02;3.60;70.30
38333;DHT22;25748;46.670;14.272;2024-01-07T01:00:28;3.60;70.40
38333;DHT22;25748;46.670;14.272;2024-01-07T01:02:54;3.60;70.50
38333;DHT22;25748;46.670;14.272;2024-01-07T01:05:20;3.60;70.50
38333;DHT22;25748;46.670;14.272;2024-01-07T01:07:45;3.60;70.50
38333;DHT22;25748;46.670;14.272;2024-01-07T01:10:11;3.60;70.50
38333;DHT22;25748;46.670;14.272;2024-01-07T01:12:37;3.60;70.40
38333;DHT22;25748;46.670;14.272;2024-01-07T01:15:02;3.60;70.50
38333;DHT22;25748;46.670;14.272;2024-01-07T01:17:29;3.60;70.60
38333;DHT22;25748;46.670;14.272;2024-01-07T01:19:54;3.60;70.70
38333;DHT22;25748;46.670;14.272;2024-01-07T01:22:20;3.60;70.70
38333;DHT22;25748;46.670;14.272;2024-01-07T01:24:45;3.60;70.80
38333;DHT22;25748;46.670;14.272;2024-01-07T01:27:12;3.60;70.80
38333;DHT22;25748;46.670;14.272;2024-01-07T01:29:38;3.60;70.80
38333;DHT22;25748;46.670;14.272;2024-01-07T01:32:06;3.60;71.30
38333;DHT22;25748;46.670;14.272;2024-01-07T01:34:32;3.60;71.10
38333;DHT22;25748;46.670;14.272;2024-01-07T01:36:58;3.60;71.10
38333;DHT22;25748;46.670;14.272;2024-01-07T01:39:23;3.60;71.10
38333;DHT22;25748;46.670;14.272;2024-01-07T01:41:49;3.60;71.10
38333;DHT22;25748;46.670;14.272;2024-01-07T01:44:15;3.60;71.10
38333;DHT22;25748;46.670;14.272;2024-01-07T01:46:40;3.60;71.10
38333;DHT22;25748;46.670;14.272;2024-01-07T01:49:07;3.60;71.20
38333;DHT22;25748;46.670;14.272;2024-01-07T01:51:33;3.60;71.20
38333;DHT22;25748;46.670;14.272;2024-01-07T01:53:59;3.60;71.20
38333;DHT22;25748;46.670;14.272;2024-01-07T01:56:27;3.60;71.20
38333;DHT22;25748;46.670;14.272;2024-01-07T01:58:55;3.70;71.30
38333;DHT22;25748;46.670;14.272;2024-01-07T02:01:22;3.60;71.30
38333;DHT22;25748;46.670;14.272;2024-01-07T02:03:48;3.60;71.30
38333;DHT22;25748;46.670;14.272;2024-01-07T02:06:14;3.60;71.30
38333;DHT22;25748;46.670;14.272;2024-01-07T02:08:41;3.60;71.40
38333;DHT22;25748;46.670;14.272;2024-01-07T02:11:19;3.60;71.40
38333;DHT22;25748;46.670;14.272;2024-01-07T02:13:45;3.60;71.40
38333;DHT22;25748;46.670;14.272;2024-01-07T02:16:12;3.70;71.60
38333;DHT22;25748;46.670;14.272;2024-01-07T02:18:40;3.70;71.60
38333;DHT22;25748;46.670;14.272;2024-01-07T02:21:07;3.70;71.60
38333;DHT22;25748;46.670;14.272;2024-01-07T02:23:33;3.70;71.60
38333;DHT22;25748;46.670;14.272;2024-01-07T02:25:59;3.70;71.70
38333;DHT22;25748;46.670;14.272;2024-01-07T02:28:24;3.70;71.70
38333;DHT22;25748;46.670;14.272;2024-01-07T02:30:50;3.70;71.70
38333;DHT22;25748;46.670;14.272;2024-01-07T02:33:16;3.70;71.70
38333;DHT22;25748;46.670;14.272;2024-01-07T02:35:42;3.70;71.70
38333;DHT22;25748;46.670;14.272;2024-01-07T02:38:08;3.70;71.80
38333;DHT22;25748;46.670;14.272;2024-01-07T02:40:33;3.70;71.80
38333;DHT22;25748;46.670;14.272;2024-01-07T02:42:59;3.70;71.80
38333;DHT22;25748;46.670;14.272;2024-01-07T02:45:25;3.80;71.90
38333;DHT22;25748;46.670;14.272;2024-01-07T02:47:50;3.70;71.80
38333;DHT22;25748;46.670;14.272;2024-01-07T02:50:16;3.80;71.90
38333;DHT22;25748;46.670;14.272;2024-01-07T02:52:42;3.80;71.90
38333;DHT22;25748;46.670;14.272;2024-01-07T02:55:08;3.80;71.90
38333;DHT22;25748;46.670;14.272;2024-01-07T02:57:34;3.80;71.90
38333;DHT22;25748;46.670;14.272;2024-01-07T02:59:59;3.80;71.90
38333;DHT22;25748;46.670;14.272;2024-01-07T03:02:25;3.80;71.80
38333;DHT22;25748;46.670;14.272;2024-01-07T03:04:51;3.80;71.90
38333;DHT22;25748;46.670;14.272;2024-01-07T03:07:16;3.80;71.90
38333;DHT22;25748;46.670;14.272;2024-01-07T03:09:42;3.80;71.90
38333;DHT22;25748;46.670;14.272;2024-01-07T03:12:08;3.80;72.00
38333;DHT22;25748;46.670;14.272;2024-01-07T03:14:34;3.80;72.00
38333;DHT22;25748;46.670;14.272;2024-01-07T03:16:59;3.80;72.00
38333;DHT22;25748;46.670;14.272;2024-01-07T03:19:25;3.80;72.00
38333;DHT22;25748;46.670;14.272;2024-01-07T03:21:51;3.80;72.00
38333;DHT22;25748;46.670;14.272;2024-01-07T03:24:16;3.90;72.10
38333;DHT22;25748;46.670;14.272;2024-01-07T03:26:42;3.90;72.10
38333;DHT22;25748;46.670;14.272;2024-01-07T03:29:08;3.80;72.00
38333;DHT22;25748;46.670;14.272;2024-01-07T03:31:34;3.90;72.00
38333;DHT22;25748;46.670;14.272;2024-01-07T03:33:59;3.90;72.00
38333;DHT22;25748;46.670;14.272;2024-01-07T03:36:25;3.80;71.90
38333;DHT22;25748;46.670;14.272;2024-01-07T03:38:50;3.80;71.90
38333;DHT22;25748;46.670;14.272;2024-01-07T03:41:17;3.80;71.80
38333;DHT22;25748;46.670;14.272;2024-01-07T03:43:49;3.80;71.80
38333;DHT22;25748;46.670;14.272;2024-01-07T03:46:16;3.80;71.80
38333;DHT22;25748;46.670;14.272;2024-01-07T03:48:42;3.80;72.00
38333;DHT22;25748;46.670;14.272;2024-01-07T03:51:08;3.80;71.90
38333;DHT22;25748;46.670;14.272;2024-01-07T03:53:33;3.80;71.80
38333;DHT22;25748;46.670;14.272;2024-01-07T03:55:59;3.80;71.80
38333;DHT22;25748;46.670;14.272;2024-01-07T03:58:25;3.80;71.90
38333;DHT22;25748;46.670;14.272;2024-01-07T04:00:50;3.80;71.90
38333;DHT22;25748;46.670;14.272;2024-01-07T04:03:16;3.80;72.00
38333;DHT22;25748;46.670;14.272;2024-01-07T04:05:42;3.80;72.10
38333;DHT22;25748;46.670;14.272;2024-01-07T04:08:11;3.80;72.10
38333;DHT22;25748;46.670;14.272;2024-01-07T04:10:37;3.80;72.20
38333;DHT22;25748;46.670;14.272;2024-01-07T04:13:04;3.80;72.30
38333;DHT22;25748;46.670;14.272;2024-01-07T04:15:30;3.80;72.20
38333;DHT22;25748;46.670;14.272;2024-01-07T04:17:55;3.80;72.20
38333;DHT22;25748;46.670;14.272;2024-01-07T04:20:21;3.80;72.30
38333;DHT22;25748;46.670;14.272;2024-01-07T04:22:47;3.80;72.20
38333;DHT22;25748;46.670;14.272;2024-01-07T04:25:12;3.80;72.20
38333;DHT22;25748;46.670;14.272;2024-01-07T04:27:38;3.80;72.20
38333;DHT22;25748;46.670;14.272;2024-01-07T04:30:05;3.80;72.20
38333;DHT22;25748;46.670;14.272;2024-01-07T04:32:31;3.80;72.30
38333;DHT22;25748;46.670;14.272;2024-01-07T04:34:57;3.80;72.30
38333;DHT22;25748;46.670;14.272;2024-01-07T04:37:23;3.80;72.20
38333;DHT22;25748;46.670;14.272;2024-01-07T04:39:49;3.80;72.20
38333;DHT22;25748;46.670;14.272;2024-01-07T04:42:18;3.80;72.20
38333;DHT22;25748;46.670;14.272;2024-01-07T04:44:44;3.80;72.10
38333;DHT22;25748;46.670;14.272;2024-01-07T04:47:29;3.80;72.10
38333;DHT22;25748;46.670;14.272;2024-01-07T04:49:56;3.80;72.00
38333;DHT22;25748;46.670;14.272;2024-01-07T04:52:22;3.80;72.00
38333;DHT22;25748;46.670;14.272;2024-01-07T04:54:50;3.80;72.00
38333;DHT22;25748;46.670;14.272;2024-01-07T04:57:15;3.80;72.00
38333;DHT22;25748;46.670;14.272;2024-01-07T04:59:41;3.80;71.90
38333;DHT22;25748;46.670;14.272;2024-01-07T05:02:07;3.70;71.80
38333;DHT22;25748;46.670;14.272;2024-01-07T05:04:32;3.80;71.70
38333;DHT22;25748;46.670;14.272;2024-01-07T05:06:58;3.70;71.70
38333;DHT22;25748;46.670;14.272;2024-01-07T05:09:24;3.70;71.60
38333;DHT22;25748;46.670;14.272;2024-01-07T05:11:49;3.70;71.70
38333;DHT22;25748;46.670;14.272;2024-01-07T05:14:15;3.70;71.60
38333;DHT22;25748;46.670;14.272;2024-01-07T05:16:40;3.70;71.60
38333;DHT22;25748;46.670;14.272;2024-01-07T05:19:06;3.70;71.60
38333;DHT22;25748;46.670;14.272;2024-01-07T05:21:32;3.70;71.60
38333;DHT22;25748;46.670;14.272;2024-01-07T05:23:57;3.70;71.60
38333;DHT22;25748;46.670;14.272;2024-01-07T05:26:23;3.60;71.40
38333;DHT22;25748;46.670;14.272;2024-01-07T05:28:48;3.60;71.40
38333;DHT22;25748;46.670;14.272;2024-01-07T05:31:18;3.60;71.20
38333;DHT22;25748;46.670;14.272;2024-01-07T05:33:44;3.60;71.20
38333;DHT22;25748;46.670;14.272;2024-01-07T05:36:13;3.60;71.20
38333;DHT22;25748;46.670;14.272;2024-01-07T05:38:41;3.60;71.10
38333;DHT22;25748;46.670;14.272;2024-01-07T05:41:06;3.60;71.00
38333;DHT22;25748;46.670;14.272;2024-01-07T05:43:32;3.50;70.80
38333;DHT22;25748;46.670;14.272;2024-01-07T05:45:58;3.50;70.90
38333;DHT22;25748;46.670;14.272;2024-01-07T05:48:23;3.50;70.80
38333;DHT22;25748;46.670;14.272;2024-01-07T05:50:49;3.40;70.60
38333;DHT22;25748;46.670;14.272;2024-01-07T05:53:16;3.40;70.60
38333;DHT22;25748;46.670;14.272;2024-01-07T05:55:42;3.40;70.60
38333;DHT22;25748;46.670;14.272;2024-01-07T05:58:08;3.40;70.60
38333;DHT22;25748;46.670;14.272;2024-01-07T06:00:34;3.30;70.60
38333;DHT22;25748;46.670;14.272;2024-01-07T06:02:59;3.30;70.60
38333;DHT22;25748;46.670;14.272;2024-01-07T06:05:26;3.30;70.50
38333;DHT22;25748;46.670;14.272;2024-01-07T06:07:51;3.30;70.60
38333;DHT22;25748;46.670;14.272;2024-01-07T06:10:17;3.30;70.60
38333;DHT22;25748;46.670;14.272;2024-01-07T06:12:42;3.30;70.60
38333;DHT22;25748;46.670;14.272;2024-01-07T06:15:08;3.30;70.60
38333;DHT22;25748;46.670;14.272;2024-01-07T06:17:34;3.30;70.60
38333;DHT22;25748;46.670;14.272;2024-01-07T06:20:00;3.30;70.70
38333;DHT22;25748;46.670;14.272;2024-01-07T06:22:26;3.30;70.70
38333;DHT22;25748;46.670;14.272;2024-01-07T06:24:51;3.30;70.50
38333;DHT22;25748;46.670;14.272;2024-01-07T06:27:17;3.30;70.70
38333;DHT22;25748;46.670;14.272;2024-01-07T06:29:42;3.30;70.70
38333;DHT22;25748;46.670;14.272;2024-01-07T06:32:08;3.30;70.80
38333;DHT22;25748;46.670;14.272;2024-01-07T06:34:35;3.30;70.80
38333;DHT22;25748;46.670;14.272;2024-01-07T06:37:01;3.30;70.60
38333;DHT22;25748;46.670;14.272;2024-01-07T06:39:27;3.30;70.60
38333;DHT22;25748;46.670;14.272;2024-01-07T06:41:53;3.30;70.70
38333;DHT22;25748;46.670;14.272;2024-01-07T06:44:18;3.40;70.80
38333;DHT22;25748;46.670;14.272;2024-01-07T06:46:44;3.30;70.80
38333;DHT22;25748;46.670;14.272;2024-01-07T06:49:10;3.30;70.80
38333;DHT22;25748;46.670;14.272;2024-01-07T06:51:35;3.30;70.70
38333;DHT22;25748;46.670;14.272;2024-01-07T06:54:01;3.30;70.70
38333;DHT22;25748;46.670;14.272;2024-01-07T06:56:27;3.30;70.60
38333;DHT22;25748;46.670;14.272;2024-01-07T06:58:52;3.40;70.70
38333;DHT22;25748;46.670;14.272;2024-01-07T07:01:21;3.30;70.70
38333;DHT22;25748;46.670;14.272;2024-01-07T07:03:50;3.30;70.80
38333;DHT22;25748;46.670;14.272;2024-01-07T07:06:16;3.40;70.70
38333;DHT22;25748;46.670;14.272;2024-01-07T07:08:42;3.30;70.70
38333;DHT22;25748;46.670;14.272;2024-01-07T07:11:08;3.40;70.90
38333;DHT22;25748;46.670;14.272;2024-01-07T07:13:34;3.30;70.80
38333;DHT22;25748;46.670;14.272;2024-01-07T07:16:00;3.30;70.80
38333;DHT22;25748;46.670;14.272;2024-01-07T07:18:26;3.40;71.00
38333;DHT22;25748;46.670;14.272;2024-01-07T07:20:52;3.40;71.00
38333;DHT22;25748;46.670;14.272;2024-01-07T07:23:18;3.40;70.90
38333;DHT22;25748;46.670;14.272;2024-01-07T07:25:43;3.40;70.90
38333;DHT22;25748;46.670;14.272;2024-01-07T07:28:09;3.40;70.80
38333;DHT22;25748;46.670;14.272;2024-01-07T07:30:35;3.40;71.40
38333;DHT22;25748;46.670;14.272;2024-01-07T07:33:01;3.40;71.00
38333;DHT22;25748;46.670;14.272;2024-01-07T07:35:27;3.40;70.90
38333;DHT22;25748;46.670;14.272;2024-01-07T07:37:53;3.40;71.00
38333;DHT22;25748;46.670;14.272;2024-01-07T07:40:19;3.40;71.00
38333;DHT22;25748;46.670;14.272;2024-01-07T07:42:45;3.50;71.10
38333;DHT22;25748;46.670;14.272;2024-01-07T07:45:10;3.50;71.10
38333;DHT22;25748;46.670;14.272;2024-01-07T07:47:36;3.50;71.20
38333;DHT22;25748;46.670;14.272;2024-01-07T07:50:02;3.50;71.10
38333;DHT22;25748;46.670;14.272;2024-01-07T07:52:29;3.50;71.20
38333;DHT22;25748;46.670;14.272;2024-01-07T07:54:54;3.60;71.30
38333;DHT22;25748;46.670;14.272;2024-01-07T07:57:21;3.60;71.20
38333;DHT22;25748;46.670;14.272;2024-01-07T07:59:48;3.60;71.30
38333;DHT22;25748;46.670;14.272;2024-01-07T08:02:13;3.60;71.30
38333;DHT22;25748;46.670;14.272;2024-01-07T08:04:39;3.60;71.30
38333;DHT22;25748;46.670;14.272;2024-01-07T08:07:08;3.60;71.30
38333;DHT22;25748;46.670;14.272;2024-01-07T08:09:33;3.70;71.50
38333;DHT22;25748;46.670;14.272;2024-01-07T08:12:02;3.70;71.80
38333;DHT22;25748;46.670;14.272;2024-01-07T08:14:28;3.70;71.40
38333;DHT22;25748;46.670;14.272;2024-01-07T08:16:54;3.70;71.40
38333;DHT22;25748;46.670;14.272;2024-01-07T08:19:20;3.80;71.50
38333;DHT22;25748;46.670;14.272;2024-01-07T08:21:46;3.80;71.40
38333;DHT22;25748;46.670;14.272;2024-01-07T08:24:11;3.80;71.50
38333;DHT22;25748;46.670;14.272;2024-01-07T08:26:38;3.80;71.30
38333;DHT22;25748;46.670;14.272;2024-01-07T08:29:03;3.80;71.40
38333;DHT22;25748;46.670;14.272;2024-01-07T08:31:29;3.80;71.20
38333;DHT22;25748;46.670;14.272;2024-01-07T08:33:55;3.80;71.20
38333;DHT22;25748;46.670;14.272;2024-01-07T08:36:21;3.80;71.30
38333;DHT22;25748;46.670;14.272;2024-01-07T08:38:47;3.90;71.30
38333;DHT22;25748;46.670;14.272;2024-01-07T08:41:18;3.90;71.30
38333;DHT22;25748;46.670;14.272;2024-01-07T08:43:44;3.90;71.40
38333;DHT22;25748;46.670;14.272;2024-01-07T08:46:11;3.90;71.40
38333;DHT22;25748;46.670;14.272;2024-01-07T08:48:36;3.90;71.40
38333;DHT22;25748;46.670;14.272;2024-01-07T08:51:02;3.90;71.30
38333;DHT22;25748;46.670;14.272;2024-01-07T08:53:28;3.90;71.10
38333;DHT22;25748;46.670;14.272;2024-01-07T08:55:54;3.90;71.10
38333;DHT22;25748;46.670;14.272;2024-01-07T08:58:20;3.90;71.10
38333;DHT22;25748;46.670;14.272;2024-01-07T09:00:45;3.90;71.10
38333;DHT22;25748;46.670;14.272;2024-01-07T09:03:11;3.90;71.00
38333;DHT22;25748;46.670;14.272;2024-01-07T09:05:37;3.90;71.00
38333;DHT22;25748;46.670;14.272;2024-01-07T09:08:03;3.90;70.90
38333;DHT22;25748;46.670;14.272;2024-01-07T09:10:28;3.90;70.80
38333;DHT22;25748;46.670;14.272;2024-01-07T09:12:54;3.90;70.90
38333;DHT22;25748;46.670;14.272;2024-01-07T09:15:20;3.90;71.20
38333;DHT22;25748;46.670;14.272;2024-01-07T09:17:46;3.90;71.40
38333;DHT22;25748;46.670;14.272;2024-01-07T09:20:12;4.00;71.50
38333;DHT22;25748;46.670;14.272;2024-01-07T09:22:38;4.00;71.60
38333;DHT22;25748;46.670;14.272;2024-01-07T09:25:05;4.00;71.70
38333;DHT22;25748;46.670;14.272;2024-01-07T09:27:31;4.00;71.70
38333;DHT22;25748;46.670;14.272;2024-01-07T09:29:57;4.10;71.80
38333;DHT22;25748;46.670;14.272;2024-01-07T09:32:23;4.10;71.80
38333;DHT22;25748;46.670;14.272;2024-01-07T09:34:49;4.10;71.80
38333;DHT22;25748;46.670;14.272;2024-01-07T09:37:15;4.10;71.80
38333;DHT22;25748;46.670;14.272;2024-01-07T09:39:42;4.10;71.80
38333;DHT22;25748;46.670;14.272;2024-01-07T09:42:13;4.20;71.80
38333;DHT22;25748;46.670;14.272;2024-01-07T09:44:39;4.20;71.60
38333;DHT22;25748;46.670;14.272;2024-01-07T09:47:06;4.20;71.70
38333;DHT22;25748;46.670;14.272;2024-01-07T09:49:32;4.20;71.60
38333;DHT22;25748;46.670;14.272;2024-01-07T09:52:00;4.20;71.60
38333;DHT22;25748;46.670;14.272;2024-01-07T09:54:28;4.20;71.70
38333;DHT22;25748;46.670;14.272;2024-01-07T09:57:01;4.20;71.70
38333;DHT22;25748;46.670;14.272;2024-01-07T09:59:30;4.20;71.70
38333;DHT22;25748;46.670;14.272;2024-01-07T10:01:57;4.30;71.80
38333;DHT22;25748;46.670;14.272;2024-01-07T10:04:27;4.30;71.80
38333;DHT22;25748;46.670;14.272;2024-01-07T10:06:56;4.30;71.90
38333;DHT22;25748;46.670;14.272;2024-01-07T10:09:22;4.30;71.90
38333;DHT22;25748;46.670;14.272;2024-01-07T10:11:52;4.30;71.90
38333;DHT22;25748;46.670;14.272;2024-01-07T10:14:19;4.40;72.00
38333;DHT22;25748;46.670;14.272;2024-01-07T10:16:48;4.40;72.30
38333;DHT22;25748;46.670;14.272;2024-01-07T10:19:21;4.40;71.80
38333;DHT22;25748;46.670;14.272;2024-01-07T10:22:08;4.40;72.00
38333;DHT22;25748;46.670;14.272;2024-01-07T10:24:40;4.50;72.00
38333;DHT22;25748;46.670;14.272;2024-01-07T10:27:07;4.50;72.10
38333;DHT22;25748;46.670;14.272;2024-01-07T10:29:34;4.50;72.10
38333;DHT22;25748;46.670;14.272;2024-01-07T10:32:00;4.50;72.10
38333;DHT22;25748;46.670;14.272;2024-01-07T10:34:31;4.60;72.20
38333;DHT22;25748;46.670;14.272;2024-01-07T10:36:59;4.60;72.10
38333;DHT22;25748;46.670;14.272;2024-01-07T10:39:25;4.60;72.10
38333;DHT22;25748;46.670;14.272;2024-01-07T10:41:52;4.60;72.00
38333;DHT22;25748;46.670;14.272;2024-01-07T10:44:33;4.70;72.00
38333;DHT22;25748;46.670;14.272;2024-01-07T10:47:06;4.70;72.00
38333;DHT22;25748;46.670;14.272;2024-01-07T10:49:35;4.70;72.10
38333;DHT22;25748;46.670;14.272;2024-01-07T10:52:08;4.80;72.10
38333;DHT22;25748;46.670;14.272;2024-01-07T10:54:35;4.80;72.10
38333;DHT22;25748;46.670;14.272;2024-01-07T10:57:19;4.80;72.10
38333;DHT22;25748;46.670;14.272;2024-01-07T10:59:47;4.80;72.10
38333;DHT22;25748;46.670;14.272;2024-01-07T11:02:14;4.90;72.20
38333;DHT22;25748;46.670;14.272;2024-01-07T11:04:54;4.90;72.30
38333;DHT22;25748;46.670;14.272;2024-01-07T11:07:35;5.00;72.50
38333;DHT22;25748;46.670;14.272;2024-01-07T11:10:20;5.00;72.60
38333;DHT22;25748;46.670;14.272;2024-01-07T11:12:56;5.10;72.60
38333;DHT22;25748;46.670;14.272;2024-01-07T11:18:21;5.20;72.40
38333;DHT22;25748;46.670;14.272;2024-01-07T11:20:48;5.20;72.60
38333;DHT22;25748;46.670;14.272;2024-01-07T11:23:34;5.30;72.70
38333;DHT22;25748;46.670;14.272;2024-01-07T11:26:03;5.30;72.50
38333;DHT22;25748;46.670;14.272;2024-01-07T11:28:54;5.40;72.10
38333;DHT22;25748;46.670;14.272;2024-01-07T11:32:04;5.40;72.00
38333;DHT22;25748;46.670;14.272;2024-01-07T11:34:42;5.50;71.90
38333;DHT22;25748;46.670;14.272;2024-01-07T11:37:12;5.50;71.70
38333;DHT22;25748;46.670;14.272;2024-01-07T11:39:42;5.60;71.60
38333;DHT22;25748;46.670;14.272;2024-01-07T11:42:09;5.60;71.60
38333;DHT22;25748;46.670;14.272;2024-01-07T11:44:35;5.60;71.30
38333;DHT22;25748;46.670;14.272;2024-01-07T11:47:04;5.60;70.90
38333;DHT22;25748;46.670;14.272;2024-01-07T11:49:33;5.60;71.00
38333;DHT22;25748;46.670;14.272;2024-01-07T11:51:59;5.60;70.60
38333;DHT22;25748;46.670;14.272;2024-01-07T11:54:25;5.60;70.40
38333;DHT22;25748;46.670;14.272;2024-01-07T11:56:50;5.60;70.50
38333;DHT22;25748;46.670;14.272;2024-01-07T11:59:16;5.60;70.40
38333;DHT22;25748;46.670;14.272;2024-01-07T12:01:42;5.50;70.40
38333;DHT22;25748;46.670;14.272;2024-01-07T12:04:08;5.60;70.60
38333;DHT22;25748;46.670;14.272;2024-01-07T12:06:35;5.70;70.80
38333;DHT22;25748;46.670;14.272;2024-01-07T12:09:00;5.60;70.20
38333;DHT22;25748;46.670;14.272;2024-01-07T12:11:27;5.70;70.00
38333;DHT22;25748;46.670;14.272;2024-01-07T12:13:53;5.70;70.30
38333;DHT22;25748;46.670;14.272;2024-01-07T12:16:19;5.80;70.50
38333;DHT22;25748;46.670;14.272;2024-01-07T12:18:46;5.80;70.40
38333;DHT22;25748;46.670;14.272;2024-01-07T12:21:19;5.90;70.00
38333;DHT22;25748;46.670;14.272;2024-01-07T12:23:53;5.80;69.60
38333;DHT22;25748;46.670;14.272;2024-01-07T12:26:19;5.80;69.70
38333;DHT22;25748;46.670;14.272;2024-01-07T12:28:54;5.80;69.60
38333;DHT22;25748;46.670;14.272;2024-01-07T12:31:21;5.90;69.60
38333;DHT22;25748;46.670;14.272;2024-01-07T12:33:47;5.90;69.60
38333;DHT22;25748;46.670;14.272;2024-01-07T12:36:13;5.90;69.40
38333;DHT22;25748;46.670;14.272;2024-01-07T12:38:40;5.90;69.80
38333;DHT22;25748;46.670;14.272;2024-01-07T12:41:06;5.90;70.00
38333;DHT22;25748;46.670;14.272;2024-01-07T12:43:32;6.00;69.70
38333;DHT22;25748;46.670;14.272;2024-01-07T12:45:58;5.90;69.30
38333;DHT22;25748;46.670;14.272;2024-01-07T12:48:30;6.00;69.30
38333;DHT22;25748;46.670;14.272;2024-01-07T12:50:56;5.90;69.30
38333;DHT22;25748;46.670;14.272;2024-01-07T12:53:22;5.90;68.90
38333;DHT22;25748;46.670;14.272;2024-01-07T12:55:48;5.90;69.10
38333;DHT22;25748;46.670;14.272;2024-01-07T12:58:13;5.90;69.30
38333;DHT22;25748;46.670;14.272;2024-01-07T13:00:39;5.90;69.50
38333;DHT22;25748;46.670;14.272;2024-01-07T13:03:06;5.90;69.60
38333;DHT22;25748;46.670;14.272;2024-01-07T13:05:33;5.90;69.70
38333;DHT22;25748;46.670;14.272;2024-01-07T13:07:59;5.90;69.30
38333;DHT22;25748;46.670;14.272;2024-01-07T13:10:25;5.80;69.60
38333;DHT22;25748;46.670;14.272;2024-01-07T13:12:51;5.80;69.80
38333;DHT22;25748;46.670;14.272;2024-01-07T13:15:17;5.80;69.80
38333;DHT22;25748;46.670;14.272;2024-01-07T13:17:42;5.80;69.70
38333;DHT22;25748;46.670;14.272;2024-01-07T13:20:08;5.80;69.90
38333;DHT22;25748;46.670;14.272;2024-01-07T13:22:37;5.80;69.90
38333;DHT22;25748;46.670;14.272;2024-01-07T13:25:05;5.80;70.10
38333;DHT22;25748;46.670;14.272;2024-01-07T13:27:30;5.90;70.40
38333;DHT22;25748;46.670;14.272;2024-01-07T13:29:56;5.90;70.10
38333;DHT22;25748;46.670;14.272;2024-01-07T13:32:21;5.90;69.90
38333;DHT22;25748;46.670;14.272;2024-01-07T13:34:48;5.80;69.80
38333;DHT22;25748;46.670;14.272;2024-01-07T13:37:13;5.80;69.60
38333;DHT22;25748;46.670;14.272;2024-01-07T13:39:39;5.80;69.70
38333;DHT22;25748;46.670;14.272;2024-01-07T13:42:05;5.70;69.80
38333;DHT22;25748;46.670;14.272;2024-01-07T13:44:31;5.70;69.80
38333;DHT22;25748;46.670;14.272;2024-01-07T13:46:57;5.70;69.70
38333;DHT22;25748;46.670;14.272;2024-01-07T13:49:22;5.70;69.90
38333;DHT22;25748;46.670;14.272;2024-01-07T13:51:48;5.70;69.80
38333;DHT22;25748;46.670;14.272;2024-01-07T13:54:13;5.60;69.70
38333;DHT22;25748;46.670;14.272;2024-01-07T13:56:46;5.60;70.10
38333;DHT22;25748;46.670;14.272;2024-01-07T13:59:12;5.70;70.50
38333;DHT22;25748;46.670;14.272;2024-01-07T14:01:38;5.70;70.50
38333;DHT22;25748;46.670;14.272;2024-01-07T14:04:04;5.70;70.40
38333;DHT22;25748;46.670;14.272;2024-01-07T14:06:30;5.70;70.30
38333;DHT22;25748;46.670;14.272;2024-01-07T14:08:57;5.70;70.20
38333;DHT22;25748;46.670;14.272;2024-01-07T14:11:23;5.70;70.10
38333;DHT22;25748;46.670;14.272;2024-01-07T14:13:49;5.70;70.10
38333;DHT22;25748;46.670;14.272;2024-01-07T14:16:14;5.70;70.00
38333;DHT22;25748;46.670;14.272;2024-01-07T14:18:40;5.70;70.00
38333;DHT22;25748;46.670;14.272;2024-01-07T14:21:06;5.70;70.00
38333;DHT22;25748;46.670;14.272;2024-01-07T14:23:33;5.70;70.00
38333;DHT22;25748;46.670;14.272;2024-01-07T14:25:59;5.70;70.50
38333;DHT22;25748;46.670;14.272;2024-01-07T14:28:25;5.70;70.00
38333;DHT22;25748;46.670;14.272;2024-01-07T14:30:51;5.70;70.00
38333;DHT22;25748;46.670;14.272;2024-01-07T14:33:17;5.70;70.10
38333;DHT22;25748;46.670;14.272;2024-01-07T14:35:42;5.60;70.00
38333;DHT22;25748;46.670;14.272;2024-01-07T14:38:08;5.60;70.00
38333;DHT22;25748;46.670;14.272;2024-01-07T14:40:34;5.60;69.90
38333;DHT22;25748;46.670;14.272;2024-01-07T14:43:00;5.60;70.00
38333;DHT22;25748;46.670;14.272;2024-01-07T14:45:28;5.60;70.10
38333;DHT22;25748;46.670;14.272;2024-01-07T14:47:54;5.50;69.90
38333;DHT22;25748;46.670;14.272;2024-01-07T14:50:22;5.50;69.90
38333;DHT22;25748;46.670;14.272;2024-01-07T14:52:47;5.50;70.10
38333;DHT22;25748;46.670;14.272;2024-01-07T14:55:13;5.50;70.10
38333;DHT22;25748;46.670;14.272;2024-01-07T14:57:40;5.50;70.10
38333;DHT22;25748;46.670;14.272;2024-01-07T15:00:06;5.50;70.20
38333;DHT22;25748;46.670;14.272;2024-01-07T15:02:33;5.40;70.10
38333;DHT22;25748;46.670;14.272;2024-01-07T15:04:59;5.40;70.10
38333;DHT22;25748;46.670;14.272;2024-01-07T15:07:25;5.40;70.20
38333;DHT22;25748;46.670;14.272;2024-01-07T15:09:50;5.40;70.10
38333;DHT22;25748;46.670;14.272;2024-01-07T15:12:17;5.40;70.20
38333;DHT22;25748;46.670;14.272;2024-01-07T15:14:44;5.40;70.20
38333;DHT22;25748;46.670;14.272;2024-01-07T15:17:10;5.30;70.10
38333;DHT22;25748;46.670;14.272;2024-01-07T15:19:35;5.30;70.20
38333;DHT22;25748;46.670;14.272;2024-01-07T15:22:01;5.30;70.30
38333;DHT22;25748;46.670;14.272;2024-01-07T15:24:28;5.30;70.70
38333;DHT22;25748;46.670;14.272;2024-01-07T15:26:54;5.30;70.30
38333;DHT22;25748;46.670;14.272;2024-01-07T15:29:19;5.20;70.20
38333;DHT22;25748;46.670;14.272;2024-01-07T15:31:45;5.20;70.30